sensor_id;sensor_type;location;lat;lon;timestamp;temperature;humidity
37222;DHT22;23119;51.842;-2.230;2022-09-24T00:01:39;13.00;99.90
37222;DHT22;23119;51.842;-2.230;2022-09-24T00:04:07;13.00;99.90
37222;DHT22;23119;51.842;-2.230;2022-09-24T00:06:36;12.90;99.90
37222;DHT22;23119;51.842;-2.230;2022-09-24T00:09:05;12.90;99.90
37222;DHT22;23119;51.842;-2.230;2022-09-24T00:11:31;12.90;99.90
37222;DHT22;23119;51.842;-2.230;2022-09-24T00:13:58;12.90;99.90
37222;DHT22;23119;51.842;-2.230;2022-09-24T00:16:25;12.80;99.90
37222;DHT22;23119;51.842;-2.230;2022-09-24T00:18:55;12.70;99.90
37222;DHT22;23119;51.842;-2.230;2022-09-24T00:21:29;12.70;99.90
37222;DHT22;23119;51.842;-2.230;2022-09-24T00:23:58;12.70;99.90
37222;DHT22;23119;51.842;-2.230;2022-09-24T00:26:27;12.70;99.90
37222;DHT22;23119;51.842;-2.230;2022-09-24T00:29:14;12.60;99.90
37222;DHT22;23119;51.842;-2.230;2022-09-24T00:31:41;12.70;99.90
37222;DHT22;23119;51.842;-2.230;2022-09-24T00:34:07;12.60;99.90
37222;DHT22;23119;51.842;-2.230;2022-09-24T00:36:33;12.60;99.90
37222;DHT22;23119;51.842;-2.230;2022-09-24T00:38:59;12.60;99.90
37222;DHT22;23119;51.842;-2.230;2022-09-24T00:41:30;12.60;99.90
37222;DHT22;23119;51.842;-2.230;2022-09-24T00:44:33;12.60;99.90
37222;DHT22;23119;51.842;-2.230;2022-09-24T00:46:45;12.60;99.90
37222;DHT22;23119;51.842;-2.230;2022-09-24T00:49:16;12.50;99.90
37222;DHT22;23119;51.842;-2.230;2022-09-24T00:51:45;12.60;99.90
37222;DHT22;23119;51.842;-2.230;2022-09-24T00:54:23;12.50;99.90
37222;DHT22;23119;51.842;-2.230;2022-09-24T00:56:53;12.50;99.90
37222;DHT22;23119;51.842;-2.230;2022-09-24T00:59:21;12.50;99.90
37222;DHT22;23119;51.842;-2.230;2022-09-24T01:01:49;12.50;99.90
37222;DHT22;23119;51.842;-2.230;2022-09-24T01:04:17;12.40;99.90
37222;DHT22;23119;51.842;-2.230;2022-09-24T01:06:47;12.40;99.90
37222;DHT22;23119;51.842;-2.230;2022-09-24T01:09:14;12.40;99.90
37222;DHT22;23119;51.842;-2.230;2022-09-24T01:12:12;12.30;99.90
37222;DHT22;23119;51.842;-2.230;2022-09-24T01:14:59;12.30;99.90
37222;DHT22;23119;51.842;-2.230;2022-09-24T01:18:08;12.30;99.90
37222;DHT22;23119;51.842;-2.230;2022-09-24T01:31:34;12.30;99.90
37222;DHT22;23119;51.842;-2.230;2022-09-24T01:34:02;12.20;99.90
37222;DHT22;23119;51.842;-2.230;2022-09-24T01:36:32;12.20;99.90
37222;DHT22;23119;51.842;-2.230;2022-09-24T01:39:00;12.20;99.90
37222;DHT22;23119;51.842;-2.230;2022-09-24T01:41:29;12.20;99.90
37222;DHT22;23119;51.842;-2.230;2022-09-24T01:43:59;12.20;99.90
37222;DHT22;23119;51.842;-2.230;2022-09-24T01:46:27;12.20;99.90
37222;DHT22;23119;51.842;-2.230;2022-09-24T01:48:53;12.20;99.90
37222;DHT22;23119;51.842;-2.230;2022-09-24T01:51:28;12.20;99.90
37222;DHT22;23119;51.842;-2.230;2022-09-24T01:53:59;12.20;99.90
37222;DHT22;23119;51.842;-2.230;2022-09-24T01:56:46;12.10;99.90
37222;DHT22;23119;51.842;-2.230;2022-09-24T01:59:24;12.10;99.90
37222;DHT22;23119;51.842;-2.230;2022-09-24T02:01:57;12.10;99.90
37222;DHT22;23119;51.842;-2.230;2022-09-24T02:04:27;12.10;99.90
37222;DHT22;23119;51.842;-2.230;2022-09-24T02:06:59;12.00;99.90
37222;DHT22;23119;51.842;-2.230;2022-09-24T02:09:42;12.00;99.90
37222;DHT22;23119;51.842;-2.230;2022-09-24T02:12:32;12.00;99.90
37222;DHT22;23119;51.842;-2.230;2022-09-24T02:15:17;12.00;99.90
37222;DHT22;23119;51.842;-2.230;2022-09-24T02:17:47;12.00;99.90
37222;DHT22;23119;51.842;-2.230;2022-09-24T02:20:20;11.90;99.90
37222;DHT22;23119;51.842;-2.230;2022-09-24T02:22:48;11.90;99.90
37222;DHT22;23119;51.842;-2.230;2022-09-24T02:25:29;11.90;99.90
37222;DHT22;23119;51.842;-2.230;2022-09-24T02:27:56;11.90;99.90
37222;DHT22;23119;51.842;-2.230;2022-09-24T02:30:21;11.90;99.90
37222;DHT22;23119;51.842;-2.230;2022-09-24T02:32:48;11.90;99.90
37222;DHT22;23119;51.842;-2.230;2022-09-24T02:35:22;11.80;99.90
37222;DHT22;23119;51.842;-2.230;2022-09-24T02:37:48;11.80;99.90
37222;DHT22;23119;51.842;-2.230;2022-09-24T02:40:14;11.80;99.90
37222;DHT22;23119;51.842;-2.230;2022-09-24T02:42:40;11.80;99.90
37222;DHT22;23119;51.842;-2.230;2022-09-24T02:45:10;11.80;99.90
37222;DHT22;23119;51.842;-2.230;2022-09-24T02:47:36;11.70;99.90
37222;DHT22;23119;51.842;-2.230;2022-09-24T02:50:04;11.70;99.90
37222;DHT22;23119;51.842;-2.230;2022-09-24T02:52:30;11.70;99.90
37222;DHT22;23119;51.842;-2.230;2022-09-24T02:54:56;11.60;99.90
37222;DHT22;23119;51.842;-2.230;2022-09-24T02:57:21;11.60;99.90
37222;DHT22;23119;51.842;-2.230;2022-09-24T02:59:47;11.60;99.90
37222;DHT22;23119;51.842;-2.230;2022-09-24T03:02:13;11.60;99.90
37222;DHT22;23119;51.842;-2.230;2022-09-24T03:04:39;11.60;99.90
37222;DHT22;23119;51.842;-2.230;2022-09-24T03:07:05;11.60;99.90
37222;DHT22;23119;51.842;-2.230;2022-09-24T03:09:30;11.50;99.90
37222;DHT22;23119;51.842;-2.230;2022-09-24T03:11:56;11.60;99.90
37222;DHT22;23119;51.842;-2.230;2022-09-24T03:14:25;11.50;99.90
37222;DHT22;23119;51.842;-2.230;2022-09-24T03:16:51;11.50;99.90
37222;DHT22;23119;51.842;-2.230;2022-09-24T03:19:17;11.50;99.90
37222;DHT22;23119;51.842;-2.230;2022-09-24T03:21:42;11.50;99.90
37222;DHT22;23119;51.842;-2.230;2022-09-24T03:24:08;11.40;99.90
37222;DHT22;23119;51.842;-2.230;2022-09-24T03:26:34;11.40;99.90
37222;DHT22;23119;51.842;-2.230;2022-09-24T03:29:03;11.40;99.90
37222;DHT22;23119;51.842;-2.230;2022-09-24T03:31:28;11.40;99.90
37222;DHT22;23119;51.842;-2.230;2022-09-24T03:33:54;11.40;99.90
37222;DHT22;23119;51.842;-2.230;2022-09-24T03:36:24;11.40;99.90
37222;DHT22;23119;51.842;-2.230;2022-09-24T03:38:54;11.40;99.90
37222;DHT22;23119;51.842;-2.230;2022-09-24T03:41:22;11.40;99.90
37222;DHT22;23119;51.842;-2.230;2022-09-24T03:43:50;11.40;99.90
37222;DHT22;23119;51.842;-2.230;2022-09-24T03:46:17;11.30;99.90
37222;DHT22;23119;51.842;-2.230;2022-09-24T03:48:43;11.30;99.90
37222;DHT22;23119;51.842;-2.230;2022-09-24T03:51:16;11.30;99.90
37222;DHT22;23119;51.842;-2.230;2022-09-24T03:53:43;11.30;99.90
37222;DHT22;23119;51.842;-2.230;2022-09-24T03:56:09;11.30;99.90
37222;DHT22;23119;51.842;-2.230;2022-09-24T03:58:37;11.30;99.90
37222;DHT22;23119;51.842;-2.230;2022-09-24T04:01:07;11.20;99.90
37222;DHT22;23119;51.842;-2.230;2022-09-24T04:03:33;11.20;99.90
37222;DHT22;23119;51.842;-2.230;2022-09-24T04:05:58;11.20;99.90
37222;DHT22;23119;51.842;-2.230;2022-09-24T04:08:24;11.20;99.90
37222;DHT22;23119;51.842;-2.230;2022-09-24T04:10:50;11.20;99.90
37222;DHT22;23119;51.842;-2.230;2022-09-24T04:13:19;11.20;99.90
37222;DHT22;23119;51.842;-2.230;2022-09-24T04:15:47;11.20;99.90
37222;DHT22;23119;51.842;-2.230;2022-09-24T04:18:15;11.10;99.90
37222;DHT22;23119;51.842;-2.230;2022-09-24T04:20:43;11.20;99.90
37222;DHT22;23119;51.842;-2.230;2022-09-24T04:23:09;11.10;99.90
37222;DHT22;23119;51.842;-2.230;2022-09-24T04:25:35;11.10;99.90
37222;DHT22;23119;51.842;-2.230;2022-09-24T04:28:04;11.00;99.90
37222;DHT22;23119;51.842;-2.230;2022-09-24T04:30:33;11.10;99.90
37222;DHT22;23119;51.842;-2.230;2022-09-24T04:33:00;11.10;99.90
37222;DHT22;23119;51.842;-2.230;2022-09-24T04:35:28;11.10;99.90
37222;DHT22;23119;51.842;-2.230;2022-09-24T04:37:55;11.10;99.90
37222;DHT22;23119;51.842;-2.230;2022-09-24T04:40:23;11.20;99.90
37222;DHT22;23119;51.842;-2.230;2022-09-24T04:42:49;11.20;99.90
37222;DHT22;23119;51.842;-2.230;2022-09-24T04:45:15;11.20;99.90
37222;DHT22;23119;51.842;-2.230;2022-09-24T04:47:44;11.10;99.90
37222;DHT22;23119;51.842;-2.230;2022-09-24T04:50:10;11.10;99.90
37222;DHT22;23119;51.842;-2.230;2022-09-24T04:52:37;11.00;99.90
37222;DHT22;23119;51.842;-2.230;2022-09-24T04:55:04;11.00;99.90
37222;DHT22;23119;51.842;-2.230;2022-09-24T04:57:30;11.00;99.90
37222;DHT22;23119;51.842;-2.230;2022-09-24T05:00:03;11.00;99.90
37222;DHT22;23119;51.842;-2.230;2022-09-24T05:02:29;11.00;99.90
37222;DHT22;23119;51.842;-2.230;2022-09-24T05:04:55;11.10;99.90
37222;DHT22;23119;51.842;-2.230;2022-09-24T05:07:20;11.10;99.90
37222;DHT22;23119;51.842;-2.230;2022-09-24T05:09:48;11.10;99.90
37222;DHT22;23119;51.842;-2.230;2022-09-24T05:12:14;11.10;99.90
37222;DHT22;23119;51.842;-2.230;2022-09-24T05:14:40;11.20;99.90
37222;DHT22;23119;51.842;-2.230;2022-09-24T05:17:05;11.20;99.90
37222;DHT22;23119;51.842;-2.230;2022-09-24T05:19:34;11.20;99.90
37222;DHT22;23119;51.842;-2.230;2022-09-24T05:22:02;11.20;99.90
37222;DHT22;23119;51.842;-2.230;2022-09-24T05:24:30;11.20;99.90
37222;DHT22;23119;51.842;-2.230;2022-09-24T05:26:56;11.20;99.90
37222;DHT22;23119;51.842;-2.230;2022-09-24T05:29:42;11.20;99.90
37222;DHT22;23119;51.842;-2.230;2022-09-24T05:32:12;11.20;99.90
37222;DHT22;23119;51.842;-2.230;2022-09-24T05:34:39;11.20;99.90
37222;DHT22;23119;51.842;-2.230;2022-09-24T05:37:09;11.20;99.90
37222;DHT22;23119;51.842;-2.230;2022-09-24T05:39:35;11.20;99.90
37222;DHT22;23119;51.842;-2.230;2022-09-24T05:42:01;11.20;99.90
37222;DHT22;23119;51.842;-2.230;2022-09-24T05:44:31;11.20;99.90
37222;DHT22;23119;51.842;-2.230;2022-09-24T05:46:56;11.20;99.90
37222;DHT22;23119;51.842;-2.230;2022-09-24T05:49:25;11.20;99.90
37222;DHT22;23119;51.842;-2.230;2022-09-24T05:51:51;11.20;99.90
37222;DHT22;23119;51.842;-2.230;2022-09-24T05:54:17;11.20;99.90
37222;DHT22;23119;51.842;-2.230;2022-09-24T05:56:49;11.20;99.90
37222;DHT22;23119;51.842;-2.230;2022-09-24T05:59:14;11.30;99.90
37222;DHT22;23119;51.842;-2.230;2022-09-24T06:01:40;11.20;99.90
37222;DHT22;23119;51.842;-2.230;2022-09-24T06:04:09;11.30;99.90
37222;DHT22;23119;51.842;-2.230;2022-09-24T06:06:38;11.30;99.90
37222;DHT22;23119;51.842;-2.230;2022-09-24T06:09:04;11.40;99.90
37222;DHT22;23119;51.842;-2.230;2022-09-24T06:11:31;11.50;99.90
37222;DHT22;23119;51.842;-2.230;2022-09-24T06:14:01;11.70;99.90
37222;DHT22;23119;51.842;-2.230;2022-09-24T06:16:32;12.10;99.90
37222;DHT22;23119;51.842;-2.230;2022-09-24T06:18:59;12.70;99.90
37222;DHT22;23119;51.842;-2.230;2022-09-24T06:21:28;13.50;99.90
37222;DHT22;23119;51.842;-2.230;2022-09-24T06:23:56;14.00;99.90
37222;DHT22;23119;51.842;-2.230;2022-09-24T06:26:25;14.60;99.90
37222;DHT22;23119;51.842;-2.230;2022-09-24T06:28:51;15.00;99.90
37222;DHT22;23119;51.842;-2.230;2022-09-24T06:31:20;15.30;99.90
37222;DHT22;23119;51.842;-2.230;2022-09-24T06:33:46;15.80;99.90
37222;DHT22;23119;51.842;-2.230;2022-09-24T06:36:11;16.50;99.90
37222;DHT22;23119;51.842;-2.230;2022-09-24T06:38:37;17.50;99.90
37222;DHT22;23119;51.842;-2.230;2022-09-24T06:41:06;18.50;99.90
37222;DHT22;23119;51.842;-2.230;2022-09-24T06:43:33;19.30;99.90
37222;DHT22;23119;51.842;-2.230;2022-09-24T06:46:01;20.10;99.50
37222;DHT22;23119;51.842;-2.230;2022-09-24T06:48:30;20.80;97.80
37222;DHT22;23119;51.842;-2.230;2022-09-24T06:50:56;21.70;97.10
37222;DHT22;23119;51.842;-2.230;2022-09-24T06:53:22;22.10;96.10
37222;DHT22;23119;51.842;-2.230;2022-09-24T06:55:48;22.50;95.30
37222;DHT22;23119;51.842;-2.230;2022-09-24T06:58:18;23.00;94.50
37222;DHT22;23119;51.842;-2.230;2022-09-24T07:00:58;23.70;93.70
37222;DHT22;23119;51.842;-2.230;2022-09-24T07:03:30;24.90;91.70
37222;DHT22;23119;51.842;-2.230;2022-09-24T07:06:04;25.90;87.80
37222;DHT22;23119;51.842;-2.230;2022-09-24T07:08:33;27.30;87.60
37222;DHT22;23119;51.842;-2.230;2022-09-24T07:11:01;28.60;84.70
37222;DHT22;23119;51.842;-2.230;2022-09-24T07:13:27;29.00;80.70
37222;DHT22;23119;51.842;-2.230;2022-09-24T07:15:58;29.90;81.00
37222;DHT22;23119;51.842;-2.230;2022-09-24T07:18:28;30.40;77.40
37222;DHT22;23119;51.842;-2.230;2022-09-24T07:20:56;30.50;77.30
37222;DHT22;23119;51.842;-2.230;2022-09-24T07:23:22;30.90;75.40
37222;DHT22;23119;51.842;-2.230;2022-09-24T07:25:56;31.30;75.10
37222;DHT22;23119;51.842;-2.230;2022-09-24T07:28:24;31.90;74.10
37222;DHT22;23119;51.842;-2.230;2022-09-24T07:30:56;32.40;73.00
37222;DHT22;23119;51.842;-2.230;2022-09-24T07:33:22;32.80;71.70
37222;DHT22;23119;51.842;-2.230;2022-09-24T07:35:48;33.60;71.30
37222;DHT22;23119;51.842;-2.230;2022-09-24T07:38:16;34.30;69.70
37222;DHT22;23119;51.842;-2.230;2022-09-24T07:40:42;34.60;69.20
37222;DHT22;23119;51.842;-2.230;2022-09-24T07:43:09;35.00;68.10
37222;DHT22;23119;51.842;-2.230;2022-09-24T07:45:38;35.20;67.40
37222;DHT22;23119;51.842;-2.230;2022-09-24T07:48:11;35.70;67.10
37222;DHT22;23119;51.842;-2.230;2022-09-24T07:50:42;35.40;65.20
37222;DHT22;23119;51.842;-2.230;2022-09-24T07:53:12;36.00;63.30
37222;DHT22;23119;51.842;-2.230;2022-09-24T07:55:43;36.00;63.90
37222;DHT22;23119;51.842;-2.230;2022-09-24T07:58:16;36.20;63.80
37222;DHT22;23119;51.842;-2.230;2022-09-24T08:00:51;36.30;62.80
37222;DHT22;23119;51.842;-2.230;2022-09-24T08:03:23;36.30;61.90
37222;DHT22;23119;51.842;-2.230;2022-09-24T08:05:49;36.60;62.60
37222;DHT22;23119;51.842;-2.230;2022-09-24T08:08:16;37.30;62.30
37222;DHT22;23119;51.842;-2.230;2022-09-24T08:10:47;37.60;61.40
37222;DHT22;23119;51.842;-2.230;2022-09-24T08:13:14;37.60;60.40
37222;DHT22;23119;51.842;-2.230;2022-09-24T08:15:40;37.60;59.80
37222;DHT22;23119;51.842;-2.230;2022-09-24T08:18:06;37.50;59.40
37222;DHT22;23119;51.842;-2.230;2022-09-24T08:20:35;37.20;59.40
37222;DHT22;23119;51.842;-2.230;2022-09-24T08:23:24;37.50;59.50
37222;DHT22;23119;51.842;-2.230;2022-09-24T08:25:54;38.10;59.10
37222;DHT22;23119;51.842;-2.230;2022-09-24T08:28:24;38.00;58.50
37222;DHT22;23119;51.842;-2.230;2022-09-24T08:30:51;38.10;57.50
37222;DHT22;23119;51.842;-2.230;2022-09-24T08:33:16;37.70;58.20
37222;DHT22;23119;51.842;-2.230;2022-09-24T08:35:42;37.50;57.00
37222;DHT22;23119;51.842;-2.230;2022-09-24T08:38:10;36.70;57.40
37222;DHT22;23119;51.842;-2.230;2022-09-24T08:40:41;37.00;57.50
37222;DHT22;23119;51.842;-2.230;2022-09-24T08:45:53;36.90;56.20
37222;DHT22;23119;51.842;-2.230;2022-09-24T08:48:58;37.10;57.40
37222;DHT22;23119;51.842;-2.230;2022-09-24T08:51:25;37.80;56.30
37222;DHT22;23119;51.842;-2.230;2022-09-24T08:54:07;37.90;57.30
37222;DHT22;23119;51.842;-2.230;2022-09-24T08:56:36;38.50;55.10
37222;DHT22;23119;51.842;-2.230;2022-09-24T08:59:16;38.60;56.80
37222;DHT22;23119;51.842;-2.230;2022-09-24T09:10:53;37.90;54.70
37222;DHT22;23119;51.842;-2.230;2022-09-24T09:13:29;37.20;55.70
37222;DHT22;23119;51.842;-2.230;2022-09-24T09:16:12;36.20;55.30
37222;DHT22;23119;51.842;-2.230;2022-09-24T09:18:46;35.70;56.10
37222;DHT22;23119;51.842;-2.230;2022-09-24T09:21:30;35.60;56.50
37222;DHT22;23119;51.842;-2.230;2022-09-24T09:24:00;35.60;56.00
37222;DHT22;23119;51.842;-2.230;2022-09-24T09:26:27;35.40;56.80
37222;DHT22;23119;51.842;-2.230;2022-09-24T09:28:58;34.90;56.80
37222;DHT22;23119;51.842;-2.230;2022-09-24T09:39:34;33.40;58.30
37222;DHT22;23119;51.842;-2.230;2022-09-24T09:44:39;32.30;58.60
37222;DHT22;23119;51.842;-2.230;2022-09-24T09:49:42;30.60;61.00
37222;DHT22;23119;51.842;-2.230;2022-09-24T09:52:19;29.90;61.70
37222;DHT22;23119;51.842;-2.230;2022-09-24T09:54:46;28.60;61.70
37222;DHT22;23119;51.842;-2.230;2022-09-24T09:57:21;27.50;62.90
37222;DHT22;23119;51.842;-2.230;2022-09-24T09:59:49;27.00;65.20
37222;DHT22;23119;51.842;-2.230;2022-09-24T10:02:29;26.70;65.50
37222;DHT22;23119;51.842;-2.230;2022-09-24T10:05:00;26.50;66.50
37222;DHT22;23119;51.842;-2.230;2022-09-24T10:07:29;25.70;65.40
37222;DHT22;23119;51.842;-2.230;2022-09-24T10:10:02;25.10;66.70
37222;DHT22;23119;51.842;-2.230;2022-09-24T10:12:29;24.80;68.10
37222;DHT22;23119;51.842;-2.230;2022-09-24T10:17:45;24.50;70.40
37222;DHT22;23119;51.842;-2.230;2022-09-24T10:20:27;24.50;68.50
37222;DHT22;23119;51.842;-2.230;2022-09-24T10:22:56;24.40;69.00
37222;DHT22;23119;51.842;-2.230;2022-09-24T10:25:27;24.00;68.40
37222;DHT22;23119;51.842;-2.230;2022-09-24T10:27:58;23.90;68.90
37222;DHT22;23119;51.842;-2.230;2022-09-24T10:31:02;23.50;69.80
37222;DHT22;23119;51.842;-2.230;2022-09-24T10:33:44;23.20;69.70
37222;DHT22;23119;51.842;-2.230;2022-09-24T10:36:19;22.80;69.90
37222;DHT22;23119;51.842;-2.230;2022-09-24T10:38:45;22.50;70.30
37222;DHT22;23119;51.842;-2.230;2022-09-24T10:41:30;22.30;70.70
37222;DHT22;23119;51.842;-2.230;2022-09-24T10:44:05;22.10;71.00
37222;DHT22;23119;51.842;-2.230;2022-09-24T10:52:41;21.80;73.30
37222;DHT22;23119;51.842;-2.230;2022-09-24T10:58:19;21.40;72.40
37222;DHT22;23119;51.842;-2.230;2022-09-24T11:01:18;21.30;72.70
37222;DHT22;23119;51.842;-2.230;2022-09-24T11:04:25;21.50;73.10
37222;DHT22;23119;51.842;-2.230;2022-09-24T11:07:30;21.80;73.60
37222;DHT22;23119;51.842;-2.230;2022-09-24T11:15:52;21.80;71.90
37222;DHT22;23119;51.842;-2.230;2022-09-24T11:29:43;21.80;70.50
37222;DHT22;23119;51.842;-2.230;2022-09-24T11:32:33;21.90;71.50
37222;DHT22;23119;51.842;-2.230;2022-09-24T11:55:18;22.60;71.70
37222;DHT22;23119;51.842;-2.230;2022-09-24T11:57:25;22.60;72.00
37222;DHT22;23119;51.842;-2.230;2022-09-24T12:00:04;22.80;72.10
37222;DHT22;23119;51.842;-2.230;2022-09-24T12:03:00;22.80;72.30
37222;DHT22;23119;51.842;-2.230;2022-09-24T12:05:37;22.80;72.10
37222;DHT22;23119;51.842;-2.230;2022-09-24T12:13:44;22.60;71.20
37222;DHT22;23119;51.842;-2.230;2022-09-24T12:16:13;22.60;71.90
37222;DHT22;23119;51.842;-2.230;2022-09-24T12:18:46;22.30;71.80
37222;DHT22;23119;51.842;-2.230;2022-09-24T12:21:19;22.30;72.50
37222;DHT22;23119;51.842;-2.230;2022-09-24T12:23:46;22.30;72.70
37222;DHT22;23119;51.842;-2.230;2022-09-24T12:26:14;22.30;72.50
37222;DHT22;23119;51.842;-2.230;2022-09-24T12:28:57;22.30;72.50
37222;DHT22;23119;51.842;-2.230;2022-09-24T12:32:05;22.40;72.30
37222;DHT22;23119;51.842;-2.230;2022-09-24T12:35:22;22.40;72.00
37222;DHT22;23119;51.842;-2.230;2022-09-24T12:37:51;22.30;71.80
37222;DHT22;23119;51.842;-2.230;2022-09-24T12:46:02;22.00;71.40
37222;DHT22;23119;51.842;-2.230;2022-09-24T12:48:31;21.90;72.10
37222;DHT22;23119;51.842;-2.230;2022-09-24T12:51:01;21.90;72.30
37222;DHT22;23119;51.842;-2.230;2022-09-24T12:53:36;21.90;72.80
37222;DHT22;23119;51.842;-2.230;2022-09-24T12:56:06;21.80;72.30
37222;DHT22;23119;51.842;-2.230;2022-09-24T12:58:44;21.80;71.90
37222;DHT22;23119;51.842;-2.230;2022-09-24T13:01:26;21.80;72.00
37222;DHT22;23119;51.842;-2.230;2022-09-24T13:06:44;21.70;71.50
37222;DHT22;23119;51.842;-2.230;2022-09-24T13:14:48;21.60;72.60
37222;DHT22;23119;51.842;-2.230;2022-09-24T13:17:15;21.70;72.60
37222;DHT22;23119;51.842;-2.230;2022-09-24T13:19:43;21.80;72.70
37222;DHT22;23119;51.842;-2.230;2022-09-24T13:22:36;21.80;72.30
37222;DHT22;23119;51.842;-2.230;2022-09-24T13:27:41;21.70;71.90
37222;DHT22;23119;51.842;-2.230;2022-09-24T13:30:25;21.80;72.30
37222;DHT22;23119;51.842;-2.230;2022-09-24T13:33:01;21.80;71.70
37222;DHT22;23119;51.842;-2.230;2022-09-24T13:35:34;21.90;72.30
37222;DHT22;23119;51.842;-2.230;2022-09-24T13:38:22;21.90;72.70
37222;DHT22;23119;51.842;-2.230;2022-09-24T13:41:17;21.90;71.70
37222;DHT22;23119;51.842;-2.230;2022-09-24T13:44:19;21.90;71.70
37222;DHT22;23119;51.842;-2.230;2022-09-24T13:46:52;22.00;70.60
37222;DHT22;23119;51.842;-2.230;2022-09-24T13:49:20;21.90;70.40
37222;DHT22;23119;51.842;-2.230;2022-09-24T13:52:16;21.90;71.20
37222;DHT22;23119;51.842;-2.230;2022-09-24T13:54:54;21.90;70.60
37222;DHT22;23119;51.842;-2.230;2022-09-24T13:57:24;21.80;71.00
37222;DHT22;23119;51.842;-2.230;2022-09-24T14:00:19;21.60;70.40
37222;DHT22;23119;51.842;-2.230;2022-09-24T14:03:25;21.60;71.20
37222;DHT22;23119;51.842;-2.230;2022-09-24T14:05:54;21.40;71.10
37222;DHT22;23119;51.842;-2.230;2022-09-24T14:08:22;21.40;71.70
37222;DHT22;23119;51.842;-2.230;2022-09-24T14:10:49;21.30;70.80
37222;DHT22;23119;51.842;-2.230;2022-09-24T14:13:17;21.00;71.10
37222;DHT22;23119;51.842;-2.230;2022-09-24T14:18:17;20.80;71.80
37222;DHT22;23119;51.842;-2.230;2022-09-24T14:20:44;20.80;72.20
37222;DHT22;23119;51.842;-2.230;2022-09-24T14:23:18;20.70;72.10
37222;DHT22;23119;51.842;-2.230;2022-09-24T14:25:49;20.70;72.20
37222;DHT22;23119;51.842;-2.230;2022-09-24T14:28:16;20.60;72.50
37222;DHT22;23119;51.842;-2.230;2022-09-24T14:30:51;20.60;72.90
37222;DHT22;23119;51.842;-2.230;2022-09-24T14:33:24;20.70;72.20
37222;DHT22;23119;51.842;-2.230;2022-09-24T14:35:57;20.70;72.50
37222;DHT22;23119;51.842;-2.230;2022-09-24T14:38:47;20.70;72.00
37222;DHT22;23119;51.842;-2.230;2022-09-24T14:41:33;20.60;72.20
37222;DHT22;23119;51.842;-2.230;2022-09-24T14:44:14;20.70;72.00
37222;DHT22;23119;51.842;-2.230;2022-09-24T14:47:04;20.80;72.40
37222;DHT22;23119;51.842;-2.230;2022-09-24T14:49:42;20.90;72.30
37222;DHT22;23119;51.842;-2.230;2022-09-24T14:52:31;21.00;72.60
37222;DHT22;23119;51.842;-2.230;2022-09-24T14:55:15;21.20;72.80
37222;DHT22;23119;51.842;-2.230;2022-09-24T14:57:47;21.30;73.00
37222;DHT22;23119;51.842;-2.230;2022-09-24T15:00:45;21.50;73.20
37222;DHT22;23119;51.842;-2.230;2022-09-24T15:03:16;21.70;72.70
37222;DHT22;23119;51.842;-2.230;2022-09-24T15:05:51;21.80;73.10
37222;DHT22;23119;51.842;-2.230;2022-09-24T15:10:57;21.80;73.10
37222;DHT22;23119;51.842;-2.230;2022-09-24T15:13:26;21.80;73.20
37222;DHT22;23119;51.842;-2.230;2022-09-24T15:18:26;21.10;76.80
37222;DHT22;23119;51.842;-2.230;2022-09-24T15:20:53;20.70;76.70
37222;DHT22;23119;51.842;-2.230;2022-09-24T15:23:24;20.30;77.80
37222;DHT22;23119;51.842;-2.230;2022-09-24T15:25:50;20.00;79.50
37222;DHT22;23119;51.842;-2.230;2022-09-24T15:28:15;19.60;79.60
37222;DHT22;23119;51.842;-2.230;2022-09-24T15:30:44;19.30;81.30
37222;DHT22;23119;51.842;-2.230;2022-09-24T15:33:13;19.00;81.20
37222;DHT22;23119;51.842;-2.230;2022-09-24T15:35:45;18.90;82.60
37222;DHT22;23119;51.842;-2.230;2022-09-24T15:38:19;18.70;83.10
37222;DHT22;23119;51.842;-2.230;2022-09-24T15:40:45;18.60;83.50
37222;DHT22;23119;51.842;-2.230;2022-09-24T15:43:18;18.60;83.10
37222;DHT22;23119;51.842;-2.230;2022-09-24T15:45:44;18.60;83.90
37222;DHT22;23119;51.842;-2.230;2022-09-24T15:48:10;18.60;83.90
37222;DHT22;23119;51.842;-2.230;2022-09-24T15:50:38;18.60;83.50
37222;DHT22;23119;51.842;-2.230;2022-09-24T15:53:20;18.60;84.40
37222;DHT22;23119;51.842;-2.230;2022-09-24T15:55:52;18.50;84.70
37222;DHT22;23119;51.842;-2.230;2022-09-24T15:58:23;18.50;85.00
37222;DHT22;23119;51.842;-2.230;2022-09-24T16:00:50;18.50;85.20
37222;DHT22;23119;51.842;-2.230;2022-09-24T16:03:22;18.40;85.60
37222;DHT22;23119;51.842;-2.230;2022-09-24T16:05:51;18.40;85.20
37222;DHT22;23119;51.842;-2.230;2022-09-24T16:08:24;18.50;85.20
37222;DHT22;23119;51.842;-2.230;2022-09-24T16:10:50;18.50;85.10
37222;DHT22;23119;51.842;-2.230;2022-09-24T16:13:17;18.60;84.30
37222;DHT22;23119;51.842;-2.230;2022-09-24T16:15:44;18.60;84.10
37222;DHT22;23119;51.842;-2.230;2022-09-24T16:18:14;18.70;83.90
37222;DHT22;23119;51.842;-2.230;2022-09-24T16:20:40;18.70;83.70
37222;DHT22;23119;51.842;-2.230;2022-09-24T16:23:15;18.80;83.60
37222;DHT22;23119;51.842;-2.230;2022-09-24T16:26:04;18.80;83.90
37222;DHT22;23119;51.842;-2.230;2022-09-24T16:28:30;18.80;84.40
37222;DHT22;23119;51.842;-2.230;2022-09-24T16:31:07;18.80;84.40
37222;DHT22;23119;51.842;-2.230;2022-09-24T16:33:38;18.70;83.90
37222;DHT22;23119;51.842;-2.230;2022-09-24T16:36:08;18.70;83.90
37222;DHT22;23119;51.842;-2.230;2022-09-24T16:38:38;18.70;84.00
37222;DHT22;23119;51.842;-2.230;2022-09-24T16:41:05;18.70;85.70
37222;DHT22;23119;51.842;-2.230;2022-09-24T16:43:31;18.50;86.30
37222;DHT22;23119;51.842;-2.230;2022-09-24T16:46:04;18.30;86.60
37222;DHT22;23119;51.842;-2.230;2022-09-24T16:48:33;18.30;86.90
37222;DHT22;23119;51.842;-2.230;2022-09-24T16:51:03;18.10;87.60
37222;DHT22;23119;51.842;-2.230;2022-09-24T16:53:29;18.10;87.90
37222;DHT22;23119;51.842;-2.230;2022-09-24T16:56:13;17.90;88.00
37222;DHT22;23119;51.842;-2.230;2022-09-24T16:58:45;17.80;88.30
37222;DHT22;23119;51.842;-2.230;2022-09-24T17:01:17;17.70;88.60
37222;DHT22;23119;51.842;-2.230;2022-09-24T17:03:43;17.60;88.80
37222;DHT22;23119;51.842;-2.230;2022-09-24T17:06:40;17.60;89.10
37222;DHT22;23119;51.842;-2.230;2022-09-24T17:09:13;17.50;89.40
37222;DHT22;23119;51.842;-2.230;2022-09-24T17:11:57;17.40;89.40
37222;DHT22;23119;51.842;-2.230;2022-09-24T17:14:24;17.40;89.70
37222;DHT22;23119;51.842;-2.230;2022-09-24T17:16:52;17.40;90.00
37222;DHT22;23119;51.842;-2.230;2022-09-24T17:19:20;17.30;90.10
37222;DHT22;23119;51.842;-2.230;2022-09-24T17:21:46;17.30;90.10
37222;DHT22;23119;51.842;-2.230;2022-09-24T17:24:17;17.20;90.20
37222;DHT22;23119;51.842;-2.230;2022-09-24T17:26:43;17.20;90.10
37222;DHT22;23119;51.842;-2.230;2022-09-24T17:29:12;17.30;90.00
37222;DHT22;23119;51.842;-2.230;2022-09-24T17:31:45;17.40;90.20
37222;DHT22;23119;51.842;-2.230;2022-09-24T17:34:10;17.40;90.30
37222;DHT22;23119;51.842;-2.230;2022-09-24T17:36:39;17.50;90.70
37222;DHT22;23119;51.842;-2.230;2022-09-24T17:39:06;17.40;90.80